ADDS METAR Data INFO
IDs: Format: Raw Decoded Include TAF

Data at: 0354 UTC 20 Feb 2018

K1K1 200330Z AUTO 04004KT 2 1/2SM BR OVC005 M02/M03 A2979 RMK AO2 T10231027
K1K1 200310Z AUTO 03004KT 3SM BR OVC005 M02/M03 A2979 RMK AO2 T10231030
K1K1 200250Z AUTO 03005KT 5SM BR OVC009 M02/M03 A2980 RMK AO2 T10221031
K1K1 200230Z AUTO 04006KT 7SM -DZ OVC011 M02/M03 A2979 RMK AO2 T10201033
K1K1 200210Z AUTO 05005KT 10SM OVC011 M02/M04 A2980 RMK AO2 T10161040
K1K1 200150Z AUTO 03006KT 10SM OVC011 M01/M04 A2980 RMK AO2 T10151041
K1K1 200130Z AUTO 03005KT 10SM OVC011 M01/M04 A2979 RMK AO2 T10151041
K1K1 200110Z AUTO 05004KT 10SM OVC011 M01/M04 A2979 RMK AO2 T10151042
K1K1 200050Z AUTO 03004KT 10SM OVC013 M01/M04 A2980 RMK AO2 T10141042
K1K1 200030Z AUTO 03005KT 10SM OVC013 M01/M05 A2979 RMK AO2 T10131046
K1K1 200010Z AUTO 03004KT 10SM OVC013 M01/M05 A2979 RMK AO2 T10111047
K1K1 192350Z AUTO 01006KT 10SM OVC015 M01/M05 A2980 RMK AO2 T10101046 11008 21020
K1K1 192330Z AUTO 02005KT 10SM OVC015 M01/M05 A2980 RMK AO2 T10081047
K1K1 192310Z AUTO 36006KT 10SM OVC013 M01/M04 A2981 RMK AO2 T10101045
K1K1 192250Z AUTO 36007KT 10SM OVC013 M01/M04 A2980 RMK AO2 T10111041
K1K1 192230Z AUTO 01008KT 10SM OVC011 M01/M04 A2980 RMK AO2 T10131040
K1K1 192210Z AUTO 36008KT 10SM OVC011 M01/M04 A2981 RMK AO2 T10141041
K1K1 192150Z AUTO 35009KT 10SM OVC009 M01/M04 A2980 RMK AO2 T10151040
K1K1 192130Z AUTO 36007KT 10SM OVC007 M01/M04 A2980 RMK AO2 T10141038
K1K1 192110Z AUTO 35009KT 10SM OVC007 M02/M04 A2980 RMK AO2 T10171037
K1K1 192050Z AUTO 35011G15KT 10SM OVC007 M02/M04 A2980 RMK AO2 T10171039
K1K1 192030Z AUTO 36012G16KT 10SM OVC007 M02/M04 A2980 RMK AO2 T10191039
K1K1 192010Z AUTO 35011G15KT 10SM OVC007 M01/M04 A2981 RMK AO2 T10151037
K1K1 191950Z AUTO 35011KT 7SM OVC007 M02/M03 A2980 RMK AO2 T10171035
K1K1 191930Z AUTO 34011KT 7SM OVC007 M02/M03 A2980 RMK AO2 T10171035
K1K1 191910Z AUTO 33011KT 10SM OVC007 M02/M03 A2979 RMK AO2 T10171035
K1K1 191850Z AUTO 34012KT 7SM OVC007 M02/M03 A2979 RMK AO2 T10191034
K1K1 191830Z AUTO 36010KT 10SM OVC005 M02/M03 A2980 RMK AO2 T10171034
K1K1 191810Z AUTO 34010KT 5SM BR OVC005 M02/M03 A2981 RMK AO2 T10201031
K1K1 191750Z AUTO 34009KT 3SM BR OVC005 M02/M03 A2981 RMK AO2 T10191028 10171 21019
K1K1 191730Z AUTO 35012G18KT 4SM BR OVC005 M01/M02 A2980 RMK AO2 T10151023
K1K1 191710Z AUTO 34008G15KT 5SM BR OVC007 M02/M02 A2982 RMK AO2 T10161025
K1K1 191650Z AUTO 33011G16KT 5SM BR OVC007 M01/M02 A2983 RMK AO2 T10141025
K1K1 191630Z AUTO 33013G17KT 10SM OVC007 M01/M03 A2982 RMK AO2 T10101026
K1K1 191610Z AUTO 35014G17KT 10SM OVC007 00/M02 A2980 RMK AO2 T10051021
K1K1 191550Z AUTO 35011G16KT 10SM OVC007 00/M02 A2980 RMK AO2 T10011019
K1K1 191530Z AUTO 34014KT 10SM OVC009 00/M02 A2979 RMK AO2 T00011019
K1K1 191510Z AUTO 34013G18KT 10SM OVC009 00/M02 A2979 RMK AO2 T00041016
K1K1 191450Z AUTO 34012G19KT 10SM OVC011 01/M01 A2976 RMK AO2 T00131013
K1K1 191430Z AUTO 33014G18KT 10SM OVC011 02/M01 A2975 RMK AO2 T00231010
K1K1 191410Z AUTO 31012G15KT 10SM OVC009 03/M01 A2974 RMK AO2 T00301006
K1K1 191350Z AUTO 33016G21KT 10SM OVC009 04/00 A2973 RMK AO2 T00370000
K1K1 191330Z AUTO 31012G19KT 10SM OVC011 04/00 A2971 RMK AO2 T00410004
K1K1 191310Z AUTO 31014KT 10SM OVC011 05/02 A2971 RMK AO2 T00530018
K1K1 191250Z AUTO 31015G20KT 10SM OVC013 07/04 A2968 RMK AO2 T00710036
K1K1 191230Z AUTO 28016G27KT 10SM OVC017 17/15 A2965 RMK AO2 T01710146
K1K1 191210Z AUTO 21017G24KT 10SM OVC017 17/15 A2963 RMK AO2 T01710146
K1K1 191150Z AUTO 22018G30KT 10SM OVC015 17/15 A2962 RMK AO2 T01690146 10171 20112
K1K1 191130Z AUTO 21021G31KT 10SM OVC015 17/15 A2961 RMK AO2 T01700146
K1K1 191110Z AUTO 21020G33KT 10SM BKN015 17/15 A2960 RMK AO2 T01700146
K1K1 191050Z AUTO 20018G29KT 10SM OVC015 17/15 A2959 RMK AO2 T01700145
K1K1 191030Z AUTO 20021G31KT 10SM OVC015 17/15 A2960 RMK AO2 T01700145
K1K1 191010Z AUTO 20020G33KT 10SM OVC015 17/14 A2960 RMK AO2 T01700143
K1K1 190950Z AUTO 20022G35KT 10SM OVC015 17/14 A2960 RMK AO2 T01700142
K1K1 190930Z AUTO 20024G36KT 10SM OVC015 17/14 A2959 RMK AO2 T01670141
K1K1 190910Z AUTO 20021G31KT 10SM OVC015 17/14 A2959 RMK AO2 T01670140
K1K1 190850Z AUTO 20020G30KT 10SM OVC015 17/14 A2961 RMK AO2 T01650140
K1K1 190830Z AUTO 20018G28KT 10SM OVC015 17/14 A2962 RMK AO2 T01650140
K1K1 190810Z AUTO 20016G27KT 10SM OVC015 16/14 A2962 RMK AO2 T01630140
K1K1 190750Z AUTO 20015G30KT 10SM OVC013 16/14 A2962 RMK AO2 T01610139
K1K1 190730Z AUTO 20016G23KT 10SM OVC011 16/14 A2961 RMK AO2 T01550136
K1K1 190710Z AUTO 19018G27KT 10SM OVC009 14/13 A2961 RMK AO2 T01440134
K1K1 190650Z AUTO 18013G19KT 7SM OVC007 13/12 A2961 RMK AO2 T01300124
K1K1 190630Z AUTO 18013G20KT 7SM OVC003 12/12 A2961 RMK AO2 T01220120
K1K1 190610Z AUTO 18014G21KT 4SM BR OVC003 12/11 A2962 RMK AO2 T01150112
K1K1 190550Z AUTO 19017G23KT 3SM BR OVC003 11/11 A2963 RMK AO2 T01110110 10111 20098 401310005
K1K1 190530Z AUTO 18013G23KT 2 1/2SM BR OVC003 11/11 A2963 RMK AO2 T01070105
K1K1 190510Z AUTO 18013G21KT 2 1/2SM BR OVC003 10/10 A2964 RMK AO2 T01030101
K1K1 190450Z AUTO 18014G20KT 3SM BR OVC003 10/10 A2964 RMK AO2 T01000097
K1K1 190430Z AUTO 18014G21KT 4SM BR OVC003 10/10 A2965 RMK AO2 T01000095
K1K1 190410Z AUTO 18014G22KT 7SM OVC003 10/09 A2965 RMK AO2 T00980093
K1K1 190350Z AUTO 18014G23KT 7SM OVC005 10/09 A2966 RMK AO2 T01000092
K1K1 190330Z AUTO 18019G26KT 7SM OVC005 10/09 A2966 RMK AO2 T01000092
K1K1 190310Z AUTO 18017G25KT 10SM OVC007 10/09 A2966 RMK AO2 T01010090
K1K1 190250Z AUTO 18014G27KT 10SM OVC007 10/09 A2966 RMK AO2 T01030089
K1K1 190230Z AUTO 17016G26KT 10SM OVC009 11/09 A2966 RMK AO2 T01050087
K1K1 190210Z AUTO 18020G28KT 10SM OVC011 11/09 A2966 RMK AO2 T01070085
K1K1 190150Z AUTO 18020G28KT 10SM OVC013 11/08 A2967 RMK AO2 T01060080
K1K1 190130Z AUTO 17016G24KT 10SM OVC015 11/08 A2966 RMK AO2 T01050076
K1K1 190110Z AUTO 18015G24KT 10SM BKN017 OVC022 11/07 A2967 RMK AO2 T01050071
K1K1 190050Z AUTO 18012G22KT 10SM BKN019 10/07 A2968 RMK AO2 T01000065
K1K1 190030Z AUTO 18016G22KT 10SM BKN021 BKN027 10/06 A2968 RMK AO2 T01000064
K1K1 190010Z AUTO 17011G21KT 10SM OVC023 11/06 A2968 RMK AO2 T01050063
K1K1 182350Z AUTO 18015G26KT 10SM OVC023 11/07 A2968 RMK AO2 T01100065 10131 20068
K1K1 182330Z AUTO 18016G27KT 10SM OVC021 11/06 A2967 RMK AO2 T01100064
K1K1 182310Z AUTO 19019G28KT 10SM OVC021 11/06 A2968 RMK AO2 T01090060
K1K1 182250Z AUTO 18015G23KT 10SM OVC021 11/06 A2968 RMK AO2 T01060057
K1K1 182230Z AUTO 18014G24KT 10SM OVC021 10/05 A2969 RMK AO2 T01030053
K1K1 182210Z AUTO 17016G23KT 10SM OVC023 11/05 A2969 RMK AO2 T01060052
K1K1 182150Z AUTO 17013G26KT 10SM OVC023 11/05 A2969 RMK AO2 T01090051
K1K1 182130Z AUTO 18016G27KT 10SM OVC025 12/05 A2971 RMK AO2 T01160052
K1K1 182110Z AUTO 17016G29KT 10SM OVC025 13/06 A2971 RMK AO2 T01270055
K1K1 182050Z AUTO 17012G30KT 10SM BKN028 11/05 A2971 RMK AO2 T01120049
K1K1 182030Z AUTO 18018G23KT 10SM OVC028 12/05 A2973 RMK AO2 T01210052
K1K1 182010Z AUTO 17018G26KT 10SM BKN024 BKN031 12/05 A2976 RMK AO2 T01190049
K1K1 181950Z AUTO 18016G23KT 10SM OVC028 11/05 A2977 RMK AO2 T01120049
K1K1 181930Z AUTO 18019G28KT 10SM BKN022 OVC030 10/05 A2980 RMK AO2 T01030046
K1K1 181910Z AUTO 18018G24KT 10SM OVC018 10/04 A2982 RMK AO2 T00950042
K1K1 181850Z AUTO 18016G26KT 10SM OVC016 10/04 A2983 RMK AO2 T00960040
K1K1 181830Z AUTO 19021G28KT 10SM OVC016 08/04 A2985 RMK AO2 T00820037
K1K1 181810Z AUTO 18016G28KT 10SM OVC014 08/03 A2987 RMK AO2 T00750034
K1K1 181750Z AUTO 18017G24KT 10SM OVC014 07/03 A2989 RMK AO2 T00650030 10087 20030
K1K1 181730Z AUTO 18015G26KT 10SM OVC014 06/03 A2992 RMK AO2 T00610026
K1K1 181710Z AUTO 18021G28KT 10SM BKN016 BKN021 07/02 A2994 RMK AO2 T00670022
K1K1 181650Z AUTO 18020G31KT 10SM SCT022 08/03 A2993 RMK AO2 T00830026
K1K1 181630Z AUTO 18025G31KT 10SM CLR 09/02 A2994 RMK AO2 T00850021
K1K1 181610Z AUTO 18016G22KT 10SM CLR 08/02 A2996 RMK AO2 T00750015